sensor_id;sensor_type;location;lat;lon;timestamp;temperature;humidity
11540;DHT22;5826;54.756;9.192;2022-10-31T00:00:57;13.60;99.90
11540;DHT22;5826;54.756;9.192;2022-10-31T00:03:23;13.50;99.90
11540;DHT22;5826;54.756;9.192;2022-10-31T00:05:49;13.50;99.90
11540;DHT22;5826;54.756;9.192;2022-10-31T00:08:16;13.60;99.90
11540;DHT22;5826;54.756;9.192;2022-10-31T00:10:43;13.50;99.90
11540;DHT22;5826;54.756;9.192;2022-10-31T00:13:09;13.50;99.90
11540;DHT22;5826;54.756;9.192;2022-10-31T00:15:36;13.50;99.90
11540;DHT22;5826;54.756;9.192;2022-10-31T00:18:03;13.50;99.90
11540;DHT22;5826;54.756;9.192;2022-10-31T00:20:28;13.50;99.90
11540;DHT22;5826;54.756;9.192;2022-10-31T00:22:58;13.50;99.90
11540;DHT22;5826;54.756;9.192;2022-10-31T00:25:23;13.60;99.90
11540;DHT22;5826;54.756;9.192;2022-10-31T00:27:49;13.60;99.90
11540;DHT22;5826;54.756;9.192;2022-10-31T00:30:14;13.70;99.90
11540;DHT22;5826;54.756;9.192;2022-10-31T00:32:40;13.70;99.90
11540;DHT22;5826;54.756;9.192;2022-10-31T00:35:06;13.70;99.90
11540;DHT22;5826;54.756;9.192;2022-10-31T00:37:31;13.70;99.90
11540;DHT22;5826;54.756;9.192;2022-10-31T00:39:57;13.80;99.90
11540;DHT22;5826;54.756;9.192;2022-10-31T00:42:22;13.80;99.90
11540;DHT22;5826;54.756;9.192;2022-10-31T00:44:48;13.80;99.90
11540;DHT22;5826;54.756;9.192;2022-10-31T00:47:13;13.80;99.90
11540;DHT22;5826;54.756;9.192;2022-10-31T00:49:39;13.80;99.90
11540;DHT22;5826;54.756;9.192;2022-10-31T00:52:04;13.90;99.90
11540;DHT22;5826;54.756;9.192;2022-10-31T00:54:30;13.90;99.90
11540;DHT22;5826;54.756;9.192;2022-10-31T00:56:56;13.90;99.90
11540;DHT22;5826;54.756;9.192;2022-10-31T00:59:22;13.90;99.90
11540;DHT22;5826;54.756;9.192;2022-10-31T01:01:47;13.90;99.90
11540;DHT22;5826;54.756;9.192;2022-10-31T01:04:13;14.00;99.90
11540;DHT22;5826;54.756;9.192;2022-10-31T01:06:38;13.90;99.90
11540;DHT22;5826;54.756;9.192;2022-10-31T01:09:04;13.90;99.90
11540;DHT22;5826;54.756;9.192;2022-10-31T01:11:29;13.90;99.90
11540;DHT22;5826;54.756;9.192;2022-10-31T01:13:55;14.00;99.90
11540;DHT22;5826;54.756;9.192;2022-10-31T01:16:23;13.90;99.90
11540;DHT22;5826;54.756;9.192;2022-10-31T01:18:49;13.90;99.90
11540;DHT22;5826;54.756;9.192;2022-10-31T01:21:17;13.90;99.90
11540;DHT22;5826;54.756;9.192;2022-10-31T01:23:43;13.90;99.90
11540;DHT22;5826;54.756;9.192;2022-10-31T01:26:14;13.90;99.90
11540;DHT22;5826;54.756;9.192;2022-10-31T01:28:46;13.90;99.90
11540;DHT22;5826;54.756;9.192;2022-10-31T01:31:12;13.90;99.90
11540;DHT22;5826;54.756;9.192;2022-10-31T01:33:38;13.90;99.90
11540;DHT22;5826;54.756;9.192;2022-10-31T01:36:18;13.90;99.90
11540;DHT22;5826;54.756;9.192;2022-10-31T01:38:44;14.00;99.90
11540;DHT22;5826;54.756;9.192;2022-10-31T01:41:13;14.00;99.90
11540;DHT22;5826;54.756;9.192;2022-10-31T01:43:44;14.00;99.90
11540;DHT22;5826;54.756;9.192;2022-10-31T01:46:10;14.00;99.90
11540;DHT22;5826;54.756;9.192;2022-10-31T01:48:36;14.00;99.90
11540;DHT22;5826;54.756;9.192;2022-10-31T01:51:02;14.00;99.90
11540;DHT22;5826;54.756;9.192;2022-10-31T01:53:30;14.00;99.90
11540;DHT22;5826;54.756;9.192;2022-10-31T01:55:56;14.00;99.90
11540;DHT22;5826;54.756;9.192;2022-10-31T01:58:25;14.00;99.90
11540;DHT22;5826;54.756;9.192;2022-10-31T02:00:56;13.90;99.90
11540;DHT22;5826;54.756;9.192;2022-10-31T02:03:22;13.90;99.90
11540;DHT22;5826;54.756;9.192;2022-10-31T02:05:49;13.90;99.90
11540;DHT22;5826;54.756;9.192;2022-10-31T02:08:28;13.90;99.90
11540;DHT22;5826;54.756;9.192;2022-10-31T02:10:54;13.90;99.90
11540;DHT22;5826;54.756;9.192;2022-10-31T02:13:22;13.80;99.90
11540;DHT22;5826;54.756;9.192;2022-10-31T02:15:52;13.80;99.90
11540;DHT22;5826;54.756;9.192;2022-10-31T02:18:18;13.80;99.90
11540;DHT22;5826;54.756;9.192;2022-10-31T02:34:53;13.50;99.90
11540;DHT22;5826;54.756;9.192;2022-10-31T02:37:51;13.40;99.90
11540;DHT22;5826;54.756;9.192;2022-10-31T02:40:26;13.40;99.90
11540;DHT22;5826;54.756;9.192;2022-10-31T02:45:48;13.40;99.90
11540;DHT22;5826;54.756;9.192;2022-10-31T02:48:19;13.40;99.90
11540;DHT22;5826;54.756;9.192;2022-10-31T02:50:54;13.30;99.90
11540;DHT22;5826;54.756;9.192;2022-10-31T02:53:20;13.20;99.90
11540;DHT22;5826;54.756;9.192;2022-10-31T02:56:06;13.20;99.90
11540;DHT22;5826;54.756;9.192;2022-10-31T02:58:46;13.20;99.90
11540;DHT22;5826;54.756;9.192;2022-10-31T03:06:45;13.10;99.90
11540;DHT22;5826;54.756;9.192;2022-10-31T03:09:21;13.10;99.90
11540;DHT22;5826;54.756;9.192;2022-10-31T03:15:00;13.00;99.90
11540;DHT22;5826;54.756;9.192;2022-10-31T03:20:44;13.00;99.90
11540;DHT22;5826;54.756;9.192;2022-10-31T03:23:13;13.00;99.90
11540;DHT22;5826;54.756;9.192;2022-10-31T03:25:39;13.00;99.90
11540;DHT22;5826;54.756;9.192;2022-10-31T03:28:06;13.00;99.90
11540;DHT22;5826;54.756;9.192;2022-10-31T03:30:36;13.00;99.90
11540;DHT22;5826;54.756;9.192;2022-10-31T03:33:08;13.00;99.90
11540;DHT22;5826;54.756;9.192;2022-10-31T03:35:36;13.00;99.90
11540;DHT22;5826;54.756;9.192;2022-10-31T03:38:03;13.00;99.90
11540;DHT22;5826;54.756;9.192;2022-10-31T03:40:30;13.00;99.90
11540;DHT22;5826;54.756;9.192;2022-10-31T03:43:05;12.90;99.90
11540;DHT22;5826;54.756;9.192;2022-10-31T03:45:44;12.90;99.90
11540;DHT22;5826;54.756;9.192;2022-10-31T03:48:11;12.80;99.90
11540;DHT22;5826;54.756;9.192;2022-10-31T03:50:49;12.80;99.90
11540;DHT22;5826;54.756;9.192;2022-10-31T03:53:26;12.80;99.90
11540;DHT22;5826;54.756;9.192;2022-10-31T03:56:09;12.70;99.90
11540;DHT22;5826;54.756;9.192;2022-10-31T03:58:41;12.70;99.90
11540;DHT22;5826;54.756;9.192;2022-10-31T04:01:11;12.70;99.90
11540;DHT22;5826;54.756;9.192;2022-10-31T04:03:39;12.80;99.90
11540;DHT22;5826;54.756;9.192;2022-10-31T04:06:10;12.80;99.90
11540;DHT22;5826;54.756;9.192;2022-10-31T04:08:44;12.80;99.90
11540;DHT22;5826;54.756;9.192;2022-10-31T04:11:12;12.80;99.90
11540;DHT22;5826;54.756;9.192;2022-10-31T04:13:39;12.80;99.90
11540;DHT22;5826;54.756;9.192;2022-10-31T04:16:06;12.70;99.90
11540;DHT22;5826;54.756;9.192;2022-10-31T04:18:31;12.70;99.90
11540;DHT22;5826;54.756;9.192;2022-10-31T04:21:05;12.70;99.90
11540;DHT22;5826;54.756;9.192;2022-10-31T04:23:32;12.70;99.90
11540;DHT22;5826;54.756;9.192;2022-10-31T04:25:58;12.60;99.90
11540;DHT22;5826;54.756;9.192;2022-10-31T04:28:23;12.60;99.90
11540;DHT22;5826;54.756;9.192;2022-10-31T04:30:49;12.60;99.90
11540;DHT22;5826;54.756;9.192;2022-10-31T04:33:15;12.50;99.90
11540;DHT22;5826;54.756;9.192;2022-10-31T04:35:40;12.50;99.90
11540;DHT22;5826;54.756;9.192;2022-10-31T04:38:06;12.50;99.90
11540;DHT22;5826;54.756;9.192;2022-10-31T04:40:32;12.40;99.90
11540;DHT22;5826;54.756;9.192;2022-10-31T04:42:57;12.40;99.90
11540;DHT22;5826;54.756;9.192;2022-10-31T04:45:23;12.40;99.90
11540;DHT22;5826;54.756;9.192;2022-10-31T04:47:48;12.50;99.90
11540;DHT22;5826;54.756;9.192;2022-10-31T04:50:14;12.40;99.90
11540;DHT22;5826;54.756;9.192;2022-10-31T04:52:41;12.40;99.90
11540;DHT22;5826;54.756;9.192;2022-10-31T04:55:08;12.40;99.90
11540;DHT22;5826;54.756;9.192;2022-10-31T04:57:41;12.40;99.90
11540;DHT22;5826;54.756;9.192;2022-10-31T05:00:07;12.40;99.90
11540;DHT22;5826;54.756;9.192;2022-10-31T05:02:33;12.40;99.90
11540;DHT22;5826;54.756;9.192;2022-10-31T05:04:59;12.30;99.90
11540;DHT22;5826;54.756;9.192;2022-10-31T05:07:24;12.30;99.90
11540;DHT22;5826;54.756;9.192;2022-10-31T05:09:49;12.30;99.90
11540;DHT22;5826;54.756;9.192;2022-10-31T05:12:15;12.30;99.90
11540;DHT22;5826;54.756;9.192;2022-10-31T05:14:40;12.30;99.90
11540;DHT22;5826;54.756;9.192;2022-10-31T05:17:06;12.30;99.90
11540;DHT22;5826;54.756;9.192;2022-10-31T05:19:31;12.20;99.90
11540;DHT22;5826;54.756;9.192;2022-10-31T05:21:57;12.20;99.90
11540;DHT22;5826;54.756;9.192;2022-10-31T05:24:22;12.20;99.90
11540;DHT22;5826;54.756;9.192;2022-10-31T05:26:49;12.20;99.90
11540;DHT22;5826;54.756;9.192;2022-10-31T05:29:14;12.20;99.90
11540;DHT22;5826;54.756;9.192;2022-10-31T05:31:40;12.20;99.90
11540;DHT22;5826;54.756;9.192;2022-10-31T05:34:05;12.10;99.90
11540;DHT22;5826;54.756;9.192;2022-10-31T05:36:31;12.10;99.90
11540;DHT22;5826;54.756;9.192;2022-10-31T05:38:56;12.10;99.90
11540;DHT22;5826;54.756;9.192;2022-10-31T05:41:22;12.10;99.90
11540;DHT22;5826;54.756;9.192;2022-10-31T05:43:47;12.00;99.90
11540;DHT22;5826;54.756;9.192;2022-10-31T05:46:13;12.00;99.90
11540;DHT22;5826;54.756;9.192;2022-10-31T05:48:38;12.20;99.90
11540;DHT22;5826;54.756;9.192;2022-10-31T05:51:04;12.00;99.90
11540;DHT22;5826;54.756;9.192;2022-10-31T05:53:29;11.90;99.90
11540;DHT22;5826;54.756;9.192;2022-10-31T05:55:55;11.90;99.90
11540;DHT22;5826;54.756;9.192;2022-10-31T05:58:20;11.90;99.90
11540;DHT22;5826;54.756;9.192;2022-10-31T06:00:46;11.80;99.90
11540;DHT22;5826;54.756;9.192;2022-10-31T06:03:11;11.80;99.90
11540;DHT22;5826;54.756;9.192;2022-10-31T06:05:37;11.80;99.90
11540;DHT22;5826;54.756;9.192;2022-10-31T06:08:02;11.80;99.90
11540;DHT22;5826;54.756;9.192;2022-10-31T06:10:28;11.80;99.90
11540;DHT22;5826;54.756;9.192;2022-10-31T06:12:53;11.70;99.90
11540;DHT22;5826;54.756;9.192;2022-10-31T06:15:19;11.80;99.90
11540;DHT22;5826;54.756;9.192;2022-10-31T06:17:45;11.80;99.90
11540;DHT22;5826;54.756;9.192;2022-10-31T06:20:10;11.80;99.90
11540;DHT22;5826;54.756;9.192;2022-10-31T06:22:36;11.80;99.90
11540;DHT22;5826;54.756;9.192;2022-10-31T06:25:02;11.80;99.90
11540;DHT22;5826;54.756;9.192;2022-10-31T06:27:28;11.90;99.90
11540;DHT22;5826;54.756;9.192;2022-10-31T06:29:53;11.90;99.90
11540;DHT22;5826;54.756;9.192;2022-10-31T06:32:19;12.00;99.90
11540;DHT22;5826;54.756;9.192;2022-10-31T06:34:44;12.00;99.90
11540;DHT22;5826;54.756;9.192;2022-10-31T06:37:13;12.00;99.90
11540;DHT22;5826;54.756;9.192;2022-10-31T06:39:38;12.10;99.90
11540;DHT22;5826;54.756;9.192;2022-10-31T06:42:04;12.10;99.90
11540;DHT22;5826;54.756;9.192;2022-10-31T06:44:30;12.10;99.90
11540;DHT22;5826;54.756;9.192;2022-10-31T06:46:56;12.10;99.90
11540;DHT22;5826;54.756;9.192;2022-10-31T06:49:21;12.20;99.90
11540;DHT22;5826;54.756;9.192;2022-10-31T06:51:48;12.20;99.90
11540;DHT22;5826;54.756;9.192;2022-10-31T06:54:14;12.30;99.90
11540;DHT22;5826;54.756;9.192;2022-10-31T06:56:40;12.20;99.90
11540;DHT22;5826;54.756;9.192;2022-10-31T06:59:05;12.30;99.90
11540;DHT22;5826;54.756;9.192;2022-10-31T07:01:31;12.30;99.90
11540;DHT22;5826;54.756;9.192;2022-10-31T07:03:56;12.30;99.90
11540;DHT22;5826;54.756;9.192;2022-10-31T07:06:22;12.30;99.90
11540;DHT22;5826;54.756;9.192;2022-10-31T07:08:47;12.30;99.90
11540;DHT22;5826;54.756;9.192;2022-10-31T07:11:13;12.40;99.90
11540;DHT22;5826;54.756;9.192;2022-10-31T07:13:39;12.40;99.90
11540;DHT22;5826;54.756;9.192;2022-10-31T07:16:05;12.40;99.90
11540;DHT22;5826;54.756;9.192;2022-10-31T07:18:32;12.40;99.90
11540;DHT22;5826;54.756;9.192;2022-10-31T07:20:58;12.40;99.90
11540;DHT22;5826;54.756;9.192;2022-10-31T07:23:23;12.50;99.90
11540;DHT22;5826;54.756;9.192;2022-10-31T07:25:53;12.40;99.90
11540;DHT22;5826;54.756;9.192;2022-10-31T07:28:19;12.50;99.90
11540;DHT22;5826;54.756;9.192;2022-10-31T07:30:49;12.60;99.90
11540;DHT22;5826;54.756;9.192;2022-10-31T07:33:15;12.60;99.90
11540;DHT22;5826;54.756;9.192;2022-10-31T07:35:40;12.60;99.90
11540;DHT22;5826;54.756;9.192;2022-10-31T07:38:08;12.60;99.90
11540;DHT22;5826;54.756;9.192;2022-10-31T07:40:34;12.70;99.90
11540;DHT22;5826;54.756;9.192;2022-10-31T07:42:59;12.80;99.90
11540;DHT22;5826;54.756;9.192;2022-10-31T07:45:25;12.80;99.90
11540;DHT22;5826;54.756;9.192;2022-10-31T07:47:52;12.90;99.90
11540;DHT22;5826;54.756;9.192;2022-10-31T07:50:23;12.90;99.90
11540;DHT22;5826;54.756;9.192;2022-10-31T07:52:58;12.90;99.90
11540;DHT22;5826;54.756;9.192;2022-10-31T07:55:24;13.00;99.90
11540;DHT22;5826;54.756;9.192;2022-10-31T07:58:03;13.00;99.90
11540;DHT22;5826;54.756;9.192;2022-10-31T08:00:30;13.10;99.90
11540;DHT22;5826;54.756;9.192;2022-10-31T08:02:59;13.10;99.90
11540;DHT22;5826;54.756;9.192;2022-10-31T08:05:25;13.20;99.90
11540;DHT22;5826;54.756;9.192;2022-10-31T08:07:51;13.20;99.90
11540;DHT22;5826;54.756;9.192;2022-10-31T08:10:17;13.30;99.90
11540;DHT22;5826;54.756;9.192;2022-10-31T08:12:42;13.30;99.90
11540;DHT22;5826;54.756;9.192;2022-10-31T08:15:08;13.40;99.90
11540;DHT22;5826;54.756;9.192;2022-10-31T08:17:38;13.40;99.90
11540;DHT22;5826;54.756;9.192;2022-10-31T08:20:05;13.50;99.90
11540;DHT22;5826;54.756;9.192;2022-10-31T08:22:31;13.60;99.90
11540;DHT22;5826;54.756;9.192;2022-10-31T08:24:56;13.70;99.90
11540;DHT22;5826;54.756;9.192;2022-10-31T08:27:22;13.70;99.90
11540;DHT22;5826;54.756;9.192;2022-10-31T08:29:48;13.80;99.90
11540;DHT22;5826;54.756;9.192;2022-10-31T08:32:13;13.90;99.90
11540;DHT22;5826;54.756;9.192;2022-10-31T08:34:39;13.90;99.90
11540;DHT22;5826;54.756;9.192;2022-10-31T08:37:04;14.00;99.90
11540;DHT22;5826;54.756;9.192;2022-10-31T08:39:30;14.00;99.90
11540;DHT22;5826;54.756;9.192;2022-10-31T08:41:55;14.00;99.90
11540;DHT22;5826;54.756;9.192;2022-10-31T08:44:21;14.00;99.90
11540;DHT22;5826;54.756;9.192;2022-10-31T08:46:46;14.00;99.90
11540;DHT22;5826;54.756;9.192;2022-10-31T08:49:12;14.10;99.90
11540;DHT22;5826;54.756;9.192;2022-10-31T08:51:37;14.20;99.90
11540;DHT22;5826;54.756;9.192;2022-10-31T08:54:03;14.20;99.90
11540;DHT22;5826;54.756;9.192;2022-10-31T08:56:29;14.30;99.90
11540;DHT22;5826;54.756;9.192;2022-10-31T08:58:54;14.20;99.90
11540;DHT22;5826;54.756;9.192;2022-10-31T09:01:20;14.30;99.90
11540;DHT22;5826;54.756;9.192;2022-10-31T09:03:45;14.30;99.90
11540;DHT22;5826;54.756;9.192;2022-10-31T09:06:11;14.40;99.90
11540;DHT22;5826;54.756;9.192;2022-10-31T09:08:36;14.40;99.90
11540;DHT22;5826;54.756;9.192;2022-10-31T09:11:03;14.50;99.90
11540;DHT22;5826;54.756;9.192;2022-10-31T09:13:28;14.60;99.90
11540;DHT22;5826;54.756;9.192;2022-10-31T09:15:56;14.60;99.90
11540;DHT22;5826;54.756;9.192;2022-10-31T09:18:22;14.60;99.90
11540;DHT22;5826;54.756;9.192;2022-10-31T09:20:49;14.70;99.90
11540;DHT22;5826;54.756;9.192;2022-10-31T09:23:17;14.70;99.90
11540;DHT22;5826;54.756;9.192;2022-10-31T09:25:43;14.80;99.90
11540;DHT22;5826;54.756;9.192;2022-10-31T09:28:11;14.80;99.90
11540;DHT22;5826;54.756;9.192;2022-10-31T09:30:37;14.90;99.90
11540;DHT22;5826;54.756;9.192;2022-10-31T09:33:05;14.90;99.90
11540;DHT22;5826;54.756;9.192;2022-10-31T09:35:31;15.00;99.90
11540;DHT22;5826;54.756;9.192;2022-10-31T09:38:03;15.10;99.90
11540;DHT22;5826;54.756;9.192;2022-10-31T09:40:39;15.10;99.90
11540;DHT22;5826;54.756;9.192;2022-10-31T09:43:36;15.20;99.90
11540;DHT22;5826;54.756;9.192;2022-10-31T09:52:09;15.40;99.90
11540;DHT22;5826;54.756;9.192;2022-10-31T09:54:45;15.30;99.90
11540;DHT22;5826;54.756;9.192;2022-10-31T09:57:15;15.30;99.90
11540;DHT22;5826;54.756;9.192;2022-10-31T09:59:43;15.40;99.90
11540;DHT22;5826;54.756;9.192;2022-10-31T10:04:56;15.50;99.90
11540;DHT22;5826;54.756;9.192;2022-10-31T10:07:35;15.50;99.90
11540;DHT22;5826;54.756;9.192;2022-10-31T10:10:39;15.60;99.90
11540;DHT22;5826;54.756;9.192;2022-10-31T10:13:18;15.60;99.90
11540;DHT22;5826;54.756;9.192;2022-10-31T10:16:21;15.60;99.90
11540;DHT22;5826;54.756;9.192;2022-10-31T10:21:33;15.50;99.90
11540;DHT22;5826;54.756;9.192;2022-10-31T10:24:22;15.60;99.90
11540;DHT22;5826;54.756;9.192;2022-10-31T10:27:05;15.60;99.90
11540;DHT22;5826;54.756;9.192;2022-10-31T10:29:39;15.80;99.90
11540;DHT22;5826;54.756;9.192;2022-10-31T10:32:24;15.80;99.90
11540;DHT22;5826;54.756;9.192;2022-10-31T10:35:53;15.80;99.90
11540;DHT22;5826;54.756;9.192;2022-10-31T10:40:51;15.90;99.90
11540;DHT22;5826;54.756;9.192;2022-10-31T10:43:36;16.00;99.90
11540;DHT22;5826;54.756;9.192;2022-10-31T10:51:58;16.30;99.90
11540;DHT22;5826;54.756;9.192;2022-10-31T10:54:38;16.40;99.90
11540;DHT22;5826;54.756;9.192;2022-10-31T10:59:37;16.60;99.90
11540;DHT22;5826;54.756;9.192;2022-10-31T11:02:03;16.60;99.90
11540;DHT22;5826;54.756;9.192;2022-10-31T11:04:32;16.60;99.90
11540;DHT22;5826;54.756;9.192;2022-10-31T11:09:27;16.60;99.90
11540;DHT22;5826;54.756;9.192;2022-10-31T11:11:54;16.70;99.90
11540;DHT22;5826;54.756;9.192;2022-10-31T11:14:21;16.70;99.90
11540;DHT22;5826;54.756;9.192;2022-10-31T11:16:52;16.80;99.90
11540;DHT22;5826;54.756;9.192;2022-10-31T11:21:46;17.10;99.90
11540;DHT22;5826;54.756;9.192;2022-10-31T11:24:17;16.50;99.90
11540;DHT22;5826;54.756;9.192;2022-10-31T11:26:45;16.40;99.90
11540;DHT22;5826;54.756;9.192;2022-10-31T11:29:16;16.40;99.90
11540;DHT22;5826;54.756;9.192;2022-10-31T11:31:42;16.30;99.90
11540;DHT22;5826;54.756;9.192;2022-10-31T11:34:37;16.30;99.90
11540;DHT22;5826;54.756;9.192;2022-10-31T11:37:13;16.30;99.90
11540;DHT22;5826;54.756;9.192;2022-10-31T11:39:42;16.30;99.90
11540;DHT22;5826;54.756;9.192;2022-10-31T11:42:08;16.30;99.90
11540;DHT22;5826;54.756;9.192;2022-10-31T11:44:34;16.40;99.90
11540;DHT22;5826;54.756;9.192;2022-10-31T11:47:02;16.50;99.90
11540;DHT22;5826;54.756;9.192;2022-10-31T11:49:47;16.50;99.90
11540;DHT22;5826;54.756;9.192;2022-10-31T11:52:22;16.40;99.90
11540;DHT22;5826;54.756;9.192;2022-10-31T11:54:55;16.40;99.90
11540;DHT22;5826;54.756;9.192;2022-10-31T11:57:31;16.30;99.90
11540;DHT22;5826;54.756;9.192;2022-10-31T11:59:59;16.20;99.90
11540;DHT22;5826;54.756;9.192;2022-10-31T12:02:25;16.10;99.90
11540;DHT22;5826;54.756;9.192;2022-10-31T12:05:26;16.10;99.90
11540;DHT22;5826;54.756;9.192;2022-10-31T12:07:56;16.00;99.90
11540;DHT22;5826;54.756;9.192;2022-10-31T12:10:28;16.00;99.90
11540;DHT22;5826;54.756;9.192;2022-10-31T12:13:34;16.10;99.90
11540;DHT22;5826;54.756;9.192;2022-10-31T12:18:41;16.20;99.90
11540;DHT22;5826;54.756;9.192;2022-10-31T12:27:03;16.50;99.90
11540;DHT22;5826;54.756;9.192;2022-10-31T12:30:14;16.80;99.90
11540;DHT22;5826;54.756;9.192;2022-10-31T12:35:25;17.00;99.90
11540;DHT22;5826;54.756;9.192;2022-10-31T12:40:59;17.30;99.90
11540;DHT22;5826;54.756;9.192;2022-10-31T12:43:33;17.40;99.90
11540;DHT22;5826;54.756;9.192;2022-10-31T12:46:01;17.70;99.90
11540;DHT22;5826;54.756;9.192;2022-10-31T12:48:57;18.50;99.90
11540;DHT22;5826;54.756;9.192;2022-10-31T12:51:47;20.00;99.90
11540;DHT22;5826;54.756;9.192;2022-10-31T12:59:44;21.70;99.90
11540;DHT22;5826;54.756;9.192;2022-10-31T13:02:20;22.80;99.90
11540;DHT22;5826;54.756;9.192;2022-10-31T13:04:55;23.50;99.90
11540;DHT22;5826;54.756;9.192;2022-10-31T13:07:27;24.30;99.90
11540;DHT22;5826;54.756;9.192;2022-10-31T13:10:14;25.40;99.90
11540;DHT22;5826;54.756;9.192;2022-10-31T13:12:41;26.20;99.90
11540;DHT22;5826;54.756;9.192;2022-10-31T13:15:22;26.30;99.90
11540;DHT22;5826;54.756;9.192;2022-10-31T13:17:57;25.90;99.90
11540;DHT22;5826;54.756;9.192;2022-10-31T13:20:38;24.70;99.90
11540;DHT22;5826;54.756;9.192;2022-10-31T13:25:37;23.40;99.90
11540;DHT22;5826;54.756;9.192;2022-10-31T13:30:46;21.90;99.90
11540;DHT22;5826;54.756;9.192;2022-10-31T13:33:21;21.40;99.90
11540;DHT22;5826;54.756;9.192;2022-10-31T13:44:27;19.60;99.90
11540;DHT22;5826;54.756;9.192;2022-10-31T13:46:54;19.20;99.90
11540;DHT22;5826;54.756;9.192;2022-10-31T13:52:16;19.10;99.90
11540;DHT22;5826;54.756;9.192;2022-10-31T13:54:46;19.20;99.90
11540;DHT22;5826;54.756;9.192;2022-10-31T13:59:51;19.00;99.90
11540;DHT22;5826;54.756;9.192;2022-10-31T14:02:30;18.90;99.90
11540;DHT22;5826;54.756;9.192;2022-10-31T14:07:52;18.50;99.90
11540;DHT22;5826;54.756;9.192;2022-10-31T14:10:33;18.20;99.90
11540;DHT22;5826;54.756;9.192;2022-10-31T14:19:17;17.50;99.90
11540;DHT22;5826;54.756;9.192;2022-10-31T14:21:45;17.50;99.90
11540;DHT22;5826;54.756;9.192;2022-10-31T14:26:56;17.50;99.90
11540;DHT22;5826;54.756;9.192;2022-10-31T14:29:27;17.40;99.90
11540;DHT22;5826;54.756;9.192;2022-10-31T14:34:33;17.40;99.90
11540;DHT22;5826;54.756;9.192;2022-10-31T14:49:11;16.40;99.90
11540;DHT22;5826;54.756;9.192;2022-10-31T14:51:44;16.20;99.90
11540;DHT22;5826;54.756;9.192;2022-10-31T14:54:15;16.10;99.90
11540;DHT22;5826;54.756;9.192;2022-10-31T14:56:49;16.00;99.90
11540;DHT22;5826;54.756;9.192;2022-10-31T14:59:21;15.80;99.90
11540;DHT22;5826;54.756;9.192;2022-10-31T15:01:58;15.70;99.90
11540;DHT22;5826;54.756;9.192;2022-10-31T15:04:27;15.60;99.90
11540;DHT22;5826;54.756;9.192;2022-10-31T15:07:02;15.60;99.90
11540;DHT22;5826;54.756;9.192;2022-10-31T15:09:34;15.60;99.90
11540;DHT22;5826;54.756;9.192;2022-10-31T15:12:01;15.50;99.90
11540;DHT22;5826;54.756;9.192;2022-10-31T15:14:41;15.50;99.90
11540;DHT22;5826;54.756;9.192;2022-10-31T15:17:10;15.50;99.90
11540;DHT22;5826;54.756;9.192;2022-10-31T15:19:36;15.50;99.90
11540;DHT22;5826;54.756;9.192;2022-10-31T15:22:03;15.50;99.90
11540;DHT22;5826;54.756;9.192;2022-10-31T15:24:37;15.50;99.90
11540;DHT22;5826;54.756;9.192;2022-10-31T15:27:04;15.40;99.90
11540;DHT22;5826;54.756;9.192;2022-10-31T15:29:30;15.40;99.90
11540;DHT22;5826;54.756;9.192;2022-10-31T15:32:01;15.40;99.90
11540;DHT22;5826;54.756;9.192;2022-10-31T15:34:42;15.30;99.90
11540;DHT22;5826;54.756;9.192;2022-10-31T15:37:14;15.30;99.90
11540;DHT22;5826;54.756;9.192;2022-10-31T15:39:41;15.20;99.90
11540;DHT22;5826;54.756;9.192;2022-10-31T15:42:22;15.20;99.90
11540;DHT22;5826;54.756;9.192;2022-10-31T15:44:54;15.20;99.90
11540;DHT22;5826;54.756;9.192;2022-10-31T15:47:22;15.10;99.90
11540;DHT22;5826;54.756;9.192;2022-10-31T15:49:57;15.00;99.90
11540;DHT22;5826;54.756;9.192;2022-10-31T15:52:31;15.00;99.90
11540;DHT22;5826;54.756;9.192;2022-10-31T15:55:04;15.00;99.90
11540;DHT22;5826;54.756;9.192;2022-10-31T15:57:31;14.90;99.90
11540;DHT22;5826;54.756;9.192;2022-10-31T15:59:57;14.80;99.90
11540;DHT22;5826;54.756;9.192;2022-10-31T16:02:24;14.80;99.90
11540;DHT22;5826;54.756;9.192;2022-10-31T16:04:56;14.80;99.90
11540;DHT22;5826;54.756;9.192;2022-10-31T16:07:23;14.80;99.90
11540;DHT22;5826;54.756;9.192;2022-10-31T16:10:22;14.80;99.90
11540;DHT22;5826;54.756;9.192;2022-10-31T16:12:48;14.80;99.90
11540;DHT22;5826;54.756;9.192;2022-10-31T16:15:16;14.70;99.90
11540;DHT22;5826;54.756;9.192;2022-10-31T16:17:44;14.70;99.90
11540;DHT22;5826;54.756;9.192;2022-10-31T16:20:22;14.60;99.90
11540;DHT22;5826;54.756;9.192;2022-10-31T16:22:51;14.60;99.90
11540;DHT22;5826;54.756;9.192;2022-10-31T16:25:29;14.50;99.90
11540;DHT22;5826;54.756;9.192;2022-10-31T16:28:16;14.50;99.90
11540;DHT22;5826;54.756;9.192;2022-10-31T16:30:44;14.50;99.90
11540;DHT22;5826;54.756;9.192;2022-10-31T16:33:31;14.40;99.90
11540;DHT22;5826;54.756;9.192;2022-10-31T16:38:56;14.30;99.90
11540;DHT22;5826;54.756;9.192;2022-10-31T16:41:23;14.30;99.90
11540;DHT22;5826;54.756;9.192;2022-10-31T16:43:49;14.20;99.90
11540;DHT22;5826;54.756;9.192;2022-10-31T16:46:22;14.20;99.90
11540;DHT22;5826;54.756;9.192;2022-10-31T16:48:48;14.20;99.90
11540;DHT22;5826;54.756;9.192;2022-10-31T16:51:13;14.20;99.90
11540;DHT22;5826;54.756;9.192;2022-10-31T16:53:39;14.20;99.90
11540;DHT22;5826;54.756;9.192;2022-10-31T16:56:05;14.20;99.90
11540;DHT22;5826;54.756;9.192;2022-10-31T16:58:36;14.20;99.90
11540;DHT22;5826;54.756;9.192;2022-10-31T17:01:04;14.20;99.90
11540;DHT22;5826;54.756;9.192;2022-10-31T17:03:31;14.10;99.90
11540;DHT22;5826;54.756;9.192;2022-10-31T17:05:56;14.10;99.90
11540;DHT22;5826;54.756;9.192;2022-10-31T17:08:23;14.20;99.90
11540;DHT22;5826;54.756;9.192;2022-10-31T17:10:51;14.10;99.90
11540;DHT22;5826;54.756;9.192;2022-10-31T17:13:19;14.10;99.90
11540;DHT22;5826;54.756;9.192;2022-10-31T17:15:48;14.10;99.90
11540;DHT22;5826;54.756;9.192;2022-10-31T17:18:15;14.00;99.90
11540;DHT22;5826;54.756;9.192;2022-10-31T17:20:42;14.10;99.90
11540;DHT22;5826;54.756;9.192;2022-10-31T17:23:12;14.10;99.90
11540;DHT22;5826;54.756;9.192;2022-10-31T17:25:39;14.10;99.90
11540;DHT22;5826;54.756;9.192;2022-10-31T17:28:04;14.10;99.90
11540;DHT22;5826;54.756;9.192;2022-10-31T17:30:31;14.10;99.90
11540;DHT22;5826;54.756;9.192;2022-10-31T17:32:57;14.00;99.90
11540;DHT22;5826;54.756;9.192;2022-10-31T17:35:23;14.00;99.90
11540;DHT22;5826;54.756;9.192;2022-10-31T17:37:49;14.00;99.90
11540;DHT22;5826;54.756;9.192;2022-10-31T17:40:19;14.00;99.90
11540;DHT22;5826;54.756;9.192;2022-10-31T17:42:50;14.10;99.90
11540;DHT22;5826;54.756;9.192;2022-10-31T17:45:16;14.00;99.90
11540;DHT22;5826;54.756;9.192;2022-10-31T17:47:42;14.00;99.90
11540;DHT22;5826;54.756;9.192;2022-10-31T17:50:08;14.00;99.90
11540;DHT22;5826;54.756;9.192;2022-10-31T17:52:33;14.00;99.90
11540;DHT22;5826;54.756;9.192;2022-10-31T17:54:59;14.10;99.90
11540;DHT22;5826;54.756;9.192;2022-10-31T17:57:24;14.10;99.90
11540;DHT22;5826;54.756;9.192;2022-10-31T17:59:50;14.10;99.90
11540;DHT22;5826;54.756;9.192;2022-10-31T18:02:15;14.10;99.90
11540;DHT22;5826;54.756;9.192;2022-10-31T18:04:41;14.10;99.90